sensor_id;sensor_type;location;lat;lon;timestamp;temperature;humidity
63976;DHT22;50167;47.958;21.780;2024-01-16T00:00:59;5.08;51.50
63976;DHT22;50167;47.958;21.780;2024-01-16T00:03:25;5.16;53.59
63976;DHT22;50167;47.958;21.780;2024-01-16T00:05:51;5.00;52.02
63976;DHT22;50167;47.958;21.780;2024-01-16T00:08:17;5.16;53.09
63976;DHT22;50167;47.958;21.780;2024-01-16T00:10:43;5.11;51.33
63976;DHT22;50167;47.958;21.780;2024-01-16T00:13:09;5.07;52.56
63976;DHT22;50167;47.958;21.780;2024-01-16T00:15:36;5.16;52.51
63976;DHT22;50167;47.958;21.780;2024-01-16T00:18:04;5.12;52.10
63976;DHT22;50167;47.958;21.780;2024-01-16T00:20:30;5.07;52.14
63976;DHT22;50167;47.958;21.780;2024-01-16T00:22:56;5.24;53.84
63976;DHT22;50167;47.958;21.780;2024-01-16T00:25:23;5.16;50.89
63976;DHT22;50167;47.958;21.780;2024-01-16T00:27:49;5.14;53.19
63976;DHT22;50167;47.958;21.780;2024-01-16T00:30:15;5.18;51.09
63976;DHT22;50167;47.958;21.780;2024-01-16T00:32:42;5.10;51.91
63976;DHT22;50167;47.958;21.780;2024-01-16T00:35:08;5.19;50.88
63976;DHT22;50167;47.958;21.780;2024-01-16T00:37:36;5.42;54.41
63976;DHT22;50167;47.958;21.780;2024-01-16T00:40:04;4.98;51.25
63976;DHT22;50167;47.958;21.780;2024-01-16T00:42:31;5.28;52.43
63976;DHT22;50167;47.958;21.780;2024-01-16T00:44:58;5.14;50.45
63976;DHT22;50167;47.958;21.780;2024-01-16T00:47:24;4.93;52.47
63976;DHT22;50167;47.958;21.780;2024-01-16T00:49:50;5.35;52.32
63976;DHT22;50167;47.958;21.780;2024-01-16T00:52:16;4.95;51.41
63976;DHT22;50167;47.958;21.780;2024-01-16T00:54:43;5.32;52.38
63976;DHT22;50167;47.958;21.780;2024-01-16T00:57:09;4.70;50.86
63976;DHT22;50167;47.958;21.780;2024-01-16T00:59:37;4.42;51.90
63976;DHT22;50167;47.958;21.780;2024-01-16T01:02:03;4.21;52.38
63976;DHT22;50167;47.958;21.780;2024-01-16T01:04:32;3.98;53.00
63976;DHT22;50167;47.958;21.780;2024-01-16T01:06:58;3.91;53.60
63976;DHT22;50167;47.958;21.780;2024-01-16T01:09:24;3.81;54.12
63976;DHT22;50167;47.958;21.780;2024-01-16T01:11:50;3.76;54.83
63976;DHT22;50167;47.958;21.780;2024-01-16T01:14:17;3.71;54.93
63976;DHT22;50167;47.958;21.780;2024-01-16T01:16:43;3.62;55.22
63976;DHT22;50167;47.958;21.780;2024-01-16T01:19:09;3.56;55.47
63976;DHT22;50167;47.958;21.780;2024-01-16T01:21:36;3.35;55.08
63976;DHT22;50167;47.958;21.780;2024-01-16T01:24:02;3.08;55.56
63976;DHT22;50167;47.958;21.780;2024-01-16T01:26:29;2.95;56.36
63976;DHT22;50167;47.958;21.780;2024-01-16T01:28:57;2.91;56.55
63976;DHT22;50167;47.958;21.780;2024-01-16T01:31:23;2.85;58.24
63976;DHT22;50167;47.958;21.780;2024-01-16T01:33:50;3.28;58.52
63976;DHT22;50167;47.958;21.780;2024-01-16T01:36:16;4.24;59.22
63976;DHT22;50167;47.958;21.780;2024-01-16T01:38:42;4.93;56.67
63976;DHT22;50167;47.958;21.780;2024-01-16T01:41:09;5.16;53.30
63976;DHT22;50167;47.958;21.780;2024-01-16T01:43:37;4.88;51.84
63976;DHT22;50167;47.958;21.780;2024-01-16T01:46:19;4.97;53.83
63976;DHT22;50167;47.958;21.780;2024-01-16T01:48:47;5.15;52.68
63976;DHT22;50167;47.958;21.780;2024-01-16T01:51:21;5.04;51.99
63976;DHT22;50167;47.958;21.780;2024-01-16T01:53:45;5.29;52.96
63976;DHT22;50167;47.958;21.780;2024-01-16T01:56:18;4.90;51.25
63976;DHT22;50167;47.958;21.780;2024-01-16T01:58:47;4.62;51.62
63976;DHT22;50167;47.958;21.780;2024-01-16T02:01:15;4.52;53.30
63976;DHT22;50167;47.958;21.780;2024-01-16T02:03:46;4.49;52.32
63976;DHT22;50167;47.958;21.780;2024-01-16T02:06:14;4.11;53.61
63976;DHT22;50167;47.958;21.780;2024-01-16T02:08:43;4.22;53.50
63976;DHT22;50167;47.958;21.780;2024-01-16T02:11:10;4.15;53.57
63976;DHT22;50167;47.958;21.780;2024-01-16T02:13:37;4.80;55.46
63976;DHT22;50167;47.958;21.780;2024-01-16T02:16:04;5.36;52.49
63976;DHT22;50167;47.958;21.780;2024-01-16T02:18:31;4.86;51.32
63976;DHT22;50167;47.958;21.780;2024-01-16T02:21:00;5.18;52.14
63976;DHT22;50167;47.958;21.780;2024-01-16T02:23:28;5.22;51.58
63976;DHT22;50167;47.958;21.780;2024-01-16T02:25:55;5.00;50.82
63976;DHT22;50167;47.958;21.780;2024-01-16T02:28:21;4.97;51.31
63976;DHT22;50167;47.958;21.780;2024-01-16T02:30:48;4.77;51.46
63976;DHT22;50167;47.958;21.780;2024-01-16T02:33:14;4.69;51.54
63976;DHT22;50167;47.958;21.780;2024-01-16T02:35:40;4.49;51.65
63976;DHT22;50167;47.958;21.780;2024-01-16T02:38:07;4.26;52.17
63976;DHT22;50167;47.958;21.780;2024-01-16T02:40:33;4.08;52.85
63976;DHT22;50167;47.958;21.780;2024-01-16T02:42:59;4.01;52.98
63976;DHT22;50167;47.958;21.780;2024-01-16T02:45:26;3.97;53.16
63976;DHT22;50167;47.958;21.780;2024-01-16T02:47:52;3.84;52.82
63976;DHT22;50167;47.958;21.780;2024-01-16T02:50:19;3.59;52.83
63976;DHT22;50167;47.958;21.780;2024-01-16T02:52:46;3.80;54.78
63976;DHT22;50167;47.958;21.780;2024-01-16T02:55:12;3.87;53.96
63976;DHT22;50167;47.958;21.780;2024-01-16T02:57:38;3.66;52.96
63976;DHT22;50167;47.958;21.780;2024-01-16T03:00:07;3.42;53.27
63976;DHT22;50167;47.958;21.780;2024-01-16T03:02:34;3.08;53.56
63976;DHT22;50167;47.958;21.780;2024-01-16T03:05:03;2.80;55.62
63976;DHT22;50167;47.958;21.780;2024-01-16T03:07:31;2.56;55.84
63976;DHT22;50167;47.958;21.780;2024-01-16T03:09:57;2.18;56.59
63976;DHT22;50167;47.958;21.780;2024-01-16T03:12:23;1.95;58.15
63976;DHT22;50167;47.958;21.780;2024-01-16T03:14:49;1.63;57.63
63976;DHT22;50167;47.958;21.780;2024-01-16T03:17:17;1.43;59.35
63976;DHT22;50167;47.958;21.780;2024-01-16T03:19:43;1.25;59.94
63976;DHT22;50167;47.958;21.780;2024-01-16T03:22:09;1.40;60.47
63976;DHT22;50167;47.958;21.780;2024-01-16T03:24:35;1.94;59.56
63976;DHT22;50167;47.958;21.780;2024-01-16T03:27:02;2.67;58.83
63976;DHT22;50167;47.958;21.780;2024-01-16T03:29:30;3.41;57.17
63976;DHT22;50167;47.958;21.780;2024-01-16T03:31:56;3.84;56.00
63976;DHT22;50167;47.958;21.780;2024-01-16T03:34:23;4.22;54.88
63976;DHT22;50167;47.958;21.780;2024-01-16T03:36:50;4.14;52.94
63976;DHT22;50167;47.958;21.780;2024-01-16T03:39:16;4.40;54.21
63976;DHT22;50167;47.958;21.780;2024-01-16T03:41:42;4.67;53.47
63976;DHT22;50167;47.958;21.780;2024-01-16T03:44:08;4.86;53.04
63976;DHT22;50167;47.958;21.780;2024-01-16T03:46:35;5.05;52.09
63976;DHT22;50167;47.958;21.780;2024-01-16T03:49:01;5.15;51.57
63976;DHT22;50167;47.958;21.780;2024-01-16T03:51:27;5.11;49.88
63976;DHT22;50167;47.958;21.780;2024-01-16T03:53:54;5.07;51.24
63976;DHT22;50167;47.958;21.780;2024-01-16T03:56:20;4.69;51.11
63976;DHT22;50167;47.958;21.780;2024-01-16T03:58:46;4.73;51.89
63976;DHT22;50167;47.958;21.780;2024-01-16T04:01:13;4.69;52.13
63976;DHT22;50167;47.958;21.780;2024-01-16T04:03:40;4.77;51.48
63976;DHT22;50167;47.958;21.780;2024-01-16T04:06:17;4.51;51.44
63976;DHT22;50167;47.958;21.780;2024-01-16T04:08:45;4.35;51.62
63976;DHT22;50167;47.958;21.780;2024-01-16T04:11:15;4.60;53.51
63976;DHT22;50167;47.958;21.780;2024-01-16T04:13:42;5.07;51.96
63976;DHT22;50167;47.958;21.780;2024-01-16T04:16:08;4.95;50.75
63976;DHT22;50167;47.958;21.780;2024-01-16T04:18:39;4.52;50.37
63976;DHT22;50167;47.958;21.780;2024-01-16T04:21:06;4.39;52.06
63976;DHT22;50167;47.958;21.780;2024-01-16T04:23:33;4.16;51.27
63976;DHT22;50167;47.958;21.780;2024-01-16T04:25:59;3.76;51.49
63976;DHT22;50167;47.958;21.780;2024-01-16T04:28:25;3.62;52.73
63976;DHT22;50167;47.958;21.780;2024-01-16T04:30:52;3.39;52.48
63976;DHT22;50167;47.958;21.780;2024-01-16T04:33:18;3.01;53.00
63976;DHT22;50167;47.958;21.780;2024-01-16T04:35:45;2.70;53.43
63976;DHT22;50167;47.958;21.780;2024-01-16T04:38:11;2.19;53.23
63976;DHT22;50167;47.958;21.780;2024-01-16T04:40:38;2.02;55.43
63976;DHT22;50167;47.958;21.780;2024-01-16T04:43:04;2.11;56.78
63976;DHT22;50167;47.958;21.780;2024-01-16T04:45:31;2.28;57.68
63976;DHT22;50167;47.958;21.780;2024-01-16T04:47:57;2.36;57.53
63976;DHT22;50167;47.958;21.780;2024-01-16T04:50:23;3.22;59.96
63976;DHT22;50167;47.958;21.780;2024-01-16T04:52:51;4.14;57.25
63976;DHT22;50167;47.958;21.780;2024-01-16T04:55:19;4.57;54.55
63976;DHT22;50167;47.958;21.780;2024-01-16T04:57:45;5.14;53.53
63976;DHT22;50167;47.958;21.780;2024-01-16T05:00:12;5.01;49.47
63976;DHT22;50167;47.958;21.780;2024-01-16T05:02:39;5.03;52.55
63976;DHT22;50167;47.958;21.780;2024-01-16T05:05:06;5.21;49.35
63976;DHT22;50167;47.958;21.780;2024-01-16T05:07:32;4.95;51.10
63976;DHT22;50167;47.958;21.780;2024-01-16T05:09:58;5.14;50.65
63976;DHT22;50167;47.958;21.780;2024-01-16T05:12:24;5.21;50.35
63976;DHT22;50167;47.958;21.780;2024-01-16T05:14:51;4.91;49.11
63976;DHT22;50167;47.958;21.780;2024-01-16T05:17:17;5.01;51.12
63976;DHT22;50167;47.958;21.780;2024-01-16T05:19:43;5.11;50.23
63976;DHT22;50167;47.958;21.780;2024-01-16T05:22:10;5.21;50.39
63976;DHT22;50167;47.958;21.780;2024-01-16T05:24:37;4.95;48.84
63976;DHT22;50167;47.958;21.780;2024-01-16T05:27:03;5.11;50.78
63976;DHT22;50167;47.958;21.780;2024-01-16T05:29:30;5.05;48.58
63976;DHT22;50167;47.958;21.780;2024-01-16T05:31:57;5.14;50.77
63976;DHT22;50167;47.958;21.780;2024-01-16T05:34:23;5.04;48.97
63976;DHT22;50167;47.958;21.780;2024-01-16T05:36:50;4.67;50.23
63976;DHT22;50167;47.958;21.780;2024-01-16T05:39:16;4.48;50.49
63976;DHT22;50167;47.958;21.780;2024-01-16T05:41:43;4.24;51.47
63976;DHT22;50167;47.958;21.780;2024-01-16T05:44:09;3.84;51.40
63976;DHT22;50167;47.958;21.780;2024-01-16T05:46:35;3.42;52.47
63976;DHT22;50167;47.958;21.780;2024-01-16T05:49:01;3.57;53.00
63976;DHT22;50167;47.958;21.780;2024-01-16T05:51:28;3.36;53.24
63976;DHT22;50167;47.958;21.780;2024-01-16T05:53:55;3.84;53.91
63976;DHT22;50167;47.958;21.780;2024-01-16T05:56:22;4.42;52.53
63976;DHT22;50167;47.958;21.780;2024-01-16T05:58:48;4.51;51.76
63976;DHT22;50167;47.958;21.780;2024-01-16T06:01:14;4.67;51.16
63976;DHT22;50167;47.958;21.780;2024-01-16T06:03:41;4.90;51.25
63976;DHT22;50167;47.958;21.780;2024-01-16T06:06:08;5.28;51.42
63976;DHT22;50167;47.958;21.780;2024-01-16T06:08:34;4.84;51.15
63976;DHT22;50167;47.958;21.780;2024-01-16T06:11:00;5.38;51.37
63976;DHT22;50167;47.958;21.780;2024-01-16T06:13:27;4.83;50.63
63976;DHT22;50167;47.958;21.780;2024-01-16T06:15:53;5.25;51.54
63976;DHT22;50167;47.958;21.780;2024-01-16T06:18:20;4.87;49.30
63976;DHT22;50167;47.958;21.780;2024-01-16T06:20:46;5.24;52.28
63976;DHT22;50167;47.958;21.780;2024-01-16T06:23:12;4.98;49.12
63976;DHT22;50167;47.958;21.780;2024-01-16T06:25:38;5.29;52.47
63976;DHT22;50167;47.958;21.780;2024-01-16T06:28:05;5.08;48.09
63976;DHT22;50167;47.958;21.780;2024-01-16T06:30:33;5.25;52.21
63976;DHT22;50167;47.958;21.780;2024-01-16T06:33:00;5.03;48.78
63976;DHT22;50167;47.958;21.780;2024-01-16T06:35:26;5.33;52.02
63976;DHT22;50167;47.958;21.780;2024-01-16T06:37:52;4.98;48.80
63976;DHT22;50167;47.958;21.780;2024-01-16T06:40:18;5.39;51.87
63976;DHT22;50167;47.958;21.780;2024-01-16T06:42:44;4.94;48.65
63976;DHT22;50167;47.958;21.780;2024-01-16T06:45:12;5.33;52.17
63976;DHT22;50167;47.958;21.780;2024-01-16T06:47:39;4.95;49.94
63976;DHT22;50167;47.958;21.780;2024-01-16T06:50:07;5.39;50.37
63976;DHT22;50167;47.958;21.780;2024-01-16T06:52:33;4.95;51.19
63976;DHT22;50167;47.958;21.780;2024-01-16T06:55:00;5.35;50.41
63976;DHT22;50167;47.958;21.780;2024-01-16T06:57:27;4.90;51.24
63976;DHT22;50167;47.958;21.780;2024-01-16T06:59:53;5.39;50.70
63976;DHT22;50167;47.958;21.780;2024-01-16T07:02:19;5.08;51.80
63976;DHT22;50167;47.958;21.780;2024-01-16T07:04:46;5.25;49.45
63976;DHT22;50167;47.958;21.780;2024-01-16T07:07:12;5.12;52.26
63976;DHT22;50167;47.958;21.780;2024-01-16T07:09:38;5.01;50.83
63976;DHT22;50167;47.958;21.780;2024-01-16T07:12:05;5.18;52.37
63976;DHT22;50167;47.958;21.780;2024-01-16T07:14:32;5.18;49.89
63976;DHT22;50167;47.958;21.780;2024-01-16T07:16:59;5.18;52.18
63976;DHT22;50167;47.958;21.780;2024-01-16T07:19:25;5.19;49.86
63976;DHT22;50167;47.958;21.780;2024-01-16T07:21:51;5.35;52.65
63976;DHT22;50167;47.958;21.780;2024-01-16T07:24:18;5.07;51.04
63976;DHT22;50167;47.958;21.780;2024-01-16T07:26:44;5.36;51.47
63976;DHT22;50167;47.958;21.780;2024-01-16T07:29:11;5.08;52.21
63976;DHT22;50167;47.958;21.780;2024-01-16T07:31:37;5.18;51.44
63976;DHT22;50167;47.958;21.780;2024-01-16T07:34:03;5.43;52.32
63976;DHT22;50167;47.958;21.780;2024-01-16T07:36:30;5.11;52.61
63976;DHT22;50167;47.958;21.780;2024-01-16T07:38:56;5.21;51.39
63976;DHT22;50167;47.958;21.780;2024-01-16T07:41:23;5.54;52.59
63976;DHT22;50167;47.958;21.780;2024-01-16T07:43:49;5.08;51.92
63976;DHT22;50167;47.958;21.780;2024-01-16T07:46:16;5.42;53.21
63976;DHT22;50167;47.958;21.780;2024-01-16T07:48:42;5.08;52.77
63976;DHT22;50167;47.958;21.780;2024-01-16T07:51:09;5.49;52.77
63976;DHT22;50167;47.958;21.780;2024-01-16T07:53:35;4.90;54.73
63976;DHT22;50167;47.958;21.780;2024-01-16T07:56:01;5.50;53.07
63976;DHT22;50167;47.958;21.780;2024-01-16T07:58:28;5.14;54.39
63976;DHT22;50167;47.958;21.780;2024-01-16T08:00:54;5.28;52.45
63976;DHT22;50167;47.958;21.780;2024-01-16T08:03:20;5.18;54.74
63976;DHT22;50167;47.958;21.780;2024-01-16T08:05:47;5.38;53.35
63976;DHT22;50167;47.958;21.780;2024-01-16T08:08:13;5.21;54.33
63976;DHT22;50167;47.958;21.780;2024-01-16T08:10:43;5.42;53.93
63976;DHT22;50167;47.958;21.780;2024-01-16T08:13:09;5.14;55.12
63976;DHT22;50167;47.958;21.780;2024-01-16T08:15:36;5.62;52.53
63976;DHT22;50167;47.958;21.780;2024-01-16T08:18:03;5.04;53.76
63976;DHT22;50167;47.958;21.780;2024-01-16T08:20:30;5.42;53.39
63976;DHT22;50167;47.958;21.780;2024-01-16T08:22:56;5.12;54.88
63976;DHT22;50167;47.958;21.780;2024-01-16T08:25:22;5.43;53.54
63976;DHT22;50167;47.958;21.780;2024-01-16T08:27:49;5.07;54.89
63976;DHT22;50167;47.958;21.780;2024-01-16T08:30:15;5.54;53.57
63976;DHT22;50167;47.958;21.780;2024-01-16T08:32:42;5.10;52.68
63976;DHT22;50167;47.958;21.780;2024-01-16T08:35:08;5.54;53.46
63976;DHT22;50167;47.958;21.780;2024-01-16T08:37:34;5.11;54.11
63976;DHT22;50167;47.958;21.780;2024-01-16T08:40:02;5.46;53.59
63976;DHT22;50167;47.958;21.780;2024-01-16T08:42:30;5.21;54.02
63976;DHT22;50167;47.958;21.780;2024-01-16T08:44:56;5.43;53.45
63976;DHT22;50167;47.958;21.780;2024-01-16T08:47:22;5.38;54.26
63976;DHT22;50167;47.958;21.780;2024-01-16T08:49:49;5.47;52.15
63976;DHT22;50167;47.958;21.780;2024-01-16T08:52:15;5.22;55.19
63976;DHT22;50167;47.958;21.780;2024-01-16T08:54:42;5.56;53.18
63976;DHT22;50167;47.958;21.780;2024-01-16T08:57:08;5.03;55.50
63976;DHT22;50167;47.958;21.780;2024-01-16T08:59:36;5.76;52.45
63976;DHT22;50167;47.958;21.780;2024-01-16T09:02:03;5.08;55.16
63976;DHT22;50167;47.958;21.780;2024-01-16T09:04:29;5.70;54.22
63976;DHT22;50167;47.958;21.780;2024-01-16T09:06:55;5.42;53.37
63976;DHT22;50167;47.958;21.780;2024-01-16T09:09:22;5.36;55.41
63976;DHT22;50167;47.958;21.780;2024-01-16T09:11:49;5.60;52.89
63976;DHT22;50167;47.958;21.780;2024-01-16T09:14:15;5.14;54.77
63976;DHT22;50167;47.958;21.780;2024-01-16T09:16:41;5.73;53.78
63976;DHT22;50167;47.958;21.780;2024-01-16T09:19:08;5.21;55.02
63976;DHT22;50167;47.958;21.780;2024-01-16T09:21:35;5.74;53.37
63976;DHT22;50167;47.958;21.780;2024-01-16T09:24:01;5.66;53.01
63976;DHT22;50167;47.958;21.780;2024-01-16T09:26:28;5.18;54.97
63976;DHT22;50167;47.958;21.780;2024-01-16T09:28:54;5.66;52.99
63976;DHT22;50167;47.958;21.780;2024-01-16T09:31:20;5.18;54.18
63976;DHT22;50167;47.958;21.780;2024-01-16T09:33:47;5.59;54.11
63976;DHT22;50167;47.958;21.780;2024-01-16T09:36:13;5.21;55.08
63976;DHT22;50167;47.958;21.780;2024-01-16T09:38:40;5.71;53.55
63976;DHT22;50167;47.958;21.780;2024-01-16T09:41:06;5.46;54.37
63976;DHT22;50167;47.958;21.780;2024-01-16T09:43:33;5.29;56.09
63976;DHT22;50167;47.958;21.780;2024-01-16T09:46:04;5.74;54.04
63976;DHT22;50167;47.958;21.780;2024-01-16T09:48:31;5.50;55.13
63976;DHT22;50167;47.958;21.780;2024-01-16T09:50:58;5.65;57.68
63976;DHT22;50167;47.958;21.780;2024-01-16T09:53:26;6.38;56.97
63976;DHT22;50167;47.958;21.780;2024-01-16T09:55:57;7.57;52.61
63976;DHT22;50167;47.958;21.780;2024-01-16T09:58:24;8.91;46.89
63976;DHT22;50167;47.958;21.780;2024-01-16T10:00:51;10.15;43.23
63976;DHT22;50167;47.958;21.780;2024-01-16T10:03:19;11.08;43.16
63976;DHT22;50167;47.958;21.780;2024-01-16T10:05:48;11.72;43.22
63976;DHT22;50167;47.958;21.780;2024-01-16T10:08:15;12.23;39.21
63976;DHT22;50167;47.958;21.780;2024-01-16T10:10:41;12.47;38.11
63976;DHT22;50167;47.958;21.780;2024-01-16T10:13:07;12.76;36.94
63976;DHT22;50167;47.958;21.780;2024-01-16T10:15:35;13.13;36.93
63976;DHT22;50167;47.958;21.780;2024-01-16T10:18:02;13.33;35.84
63976;DHT22;50167;47.958;21.780;2024-01-16T10:20:34;13.23;33.96
63976;DHT22;50167;47.958;21.780;2024-01-16T10:23:01;12.92;34.96
63976;DHT22;50167;47.958;21.780;2024-01-16T10:25:29;12.93;34.03
63976;DHT22;50167;47.958;21.780;2024-01-16T10:28:04;13.20;34.61
63976;DHT22;50167;47.958;21.780;2024-01-16T10:30:33;13.58;32.12
63976;DHT22;50167;47.958;21.780;2024-01-16T10:33:15;13.68;35.86
63976;DHT22;50167;47.958;21.780;2024-01-16T10:35:42;13.27;34.39
63976;DHT22;50167;47.958;21.780;2024-01-16T10:38:08;12.87;34.52
63976;DHT22;50167;47.958;21.780;2024-01-16T10:40:34;12.37;35.99
63976;DHT22;50167;47.958;21.780;2024-01-16T10:43:05;12.06;36.24
63976;DHT22;50167;47.958;21.780;2024-01-16T10:45:32;12.00;35.54
63976;DHT22;50167;47.958;21.780;2024-01-16T10:48:06;11.99;35.57
63976;DHT22;50167;47.958;21.780;2024-01-16T10:50:35;11.85;35.20
63976;DHT22;50167;47.958;21.780;2024-01-16T10:53:04;11.79;35.07
63976;DHT22;50167;47.958;21.780;2024-01-16T10:55:31;12.04;35.11
63976;DHT22;50167;47.958;21.780;2024-01-16T10:58:01;12.36;34.49
63976;DHT22;50167;47.958;21.780;2024-01-16T11:00:32;12.48;35.37
63976;DHT22;50167;47.958;21.780;2024-01-16T11:03:06;12.28;33.28
63976;DHT22;50167;47.958;21.780;2024-01-16T11:05:34;12.07;34.92
63976;DHT22;50167;47.958;21.780;2024-01-16T11:08:01;12.31;34.45
63976;DHT22;50167;47.958;21.780;2024-01-16T11:10:31;12.45;34.71
63976;DHT22;50167;47.958;21.780;2024-01-16T11:13:01;12.44;34.25
63976;DHT22;50167;47.958;21.780;2024-01-16T11:15:29;12.38;33.66
63976;DHT22;50167;47.958;21.780;2024-01-16T11:17:56;12.19;34.89
63976;DHT22;50167;47.958;21.780;2024-01-16T11:20:24;12.00;32.78
63976;DHT22;50167;47.958;21.780;2024-01-16T11:22:51;11.52;35.34
63976;DHT22;50167;47.958;21.780;2024-01-16T11:25:20;11.24;34.70
63976;DHT22;50167;47.958;21.780;2024-01-16T11:27:47;11.21;35.00
63976;DHT22;50167;47.958;21.780;2024-01-16T11:30:31;11.11;35.94
63976;DHT22;50167;47.958;21.780;2024-01-16T11:32:58;10.84;35.27
63976;DHT22;50167;47.958;21.780;2024-01-16T11:35:35;10.66;35.16
63976;DHT22;50167;47.958;21.780;2024-01-16T11:38:17;11.25;33.69
63976;DHT22;50167;47.958;21.780;2024-01-16T11:40:46;11.73;33.07
63976;DHT22;50167;47.958;21.780;2024-01-16T11:43:36;12.13;33.74
63976;DHT22;50167;47.958;21.780;2024-01-16T11:46:07;12.78;32.73
63976;DHT22;50167;47.958;21.780;2024-01-16T11:48:35;12.92;33.20
63976;DHT22;50167;47.958;21.780;2024-01-16T11:51:23;12.76;32.48
63976;DHT22;50167;47.958;21.780;2024-01-16T11:53:50;12.59;33.75
63976;DHT22;50167;47.958;21.780;2024-01-16T11:56:34;12.64;33.17
63976;DHT22;50167;47.958;21.780;2024-01-16T12:02:09;12.13;32.29
63976;DHT22;50167;47.958;21.780;2024-01-16T12:04:35;11.51;33.57
63976;DHT22;50167;47.958;21.780;2024-01-16T12:07:01;11.18;35.06
63976;DHT22;50167;47.958;21.780;2024-01-16T12:09:30;10.89;34.54
63976;DHT22;50167;47.958;21.780;2024-01-16T12:12:03;10.31;35.42
63976;DHT22;50167;47.958;21.780;2024-01-16T12:14:30;9.65;35.94
63976;DHT22;50167;47.958;21.780;2024-01-16T12:17:12;9.08;36.92
63976;DHT22;50167;47.958;21.780;2024-01-16T12:19:40;8.53;38.26
63976;DHT22;50167;47.958;21.780;2024-01-16T12:22:08;8.31;38.54
63976;DHT22;50167;47.958;21.780;2024-01-16T12:24:39;7.98;38.63
63976;DHT22;50167;47.958;21.780;2024-01-16T12:27:06;7.62;40.31
63976;DHT22;50167;47.958;21.780;2024-01-16T12:29:34;7.25;40.43
63976;DHT22;50167;47.958;21.780;2024-01-16T12:32:08;6.94;41.11
63976;DHT22;50167;47.958;21.780;2024-01-16T12:34:43;6.59;41.43
63976;DHT22;50167;47.958;21.780;2024-01-16T12:37:16;6.38;42.19
63976;DHT22;50167;47.958;21.780;2024-01-16T12:39:43;6.32;42.29
63976;DHT22;50167;47.958;21.780;2024-01-16T12:42:09;6.56;42.80
63976;DHT22;50167;47.958;21.780;2024-01-16T12:44:37;7.45;41.95
63976;DHT22;50167;47.958;21.780;2024-01-16T12:47:04;8.04;40.21
63976;DHT22;50167;47.958;21.780;2024-01-16T12:49:32;8.27;40.37
63976;DHT22;50167;47.958;21.780;2024-01-16T12:52:22;8.57;38.74
63976;DHT22;50167;47.958;21.780;2024-01-16T12:55:00;8.73;38.49
63976;DHT22;50167;47.958;21.780;2024-01-16T12:57:27;8.42;38.28
63976;DHT22;50167;47.958;21.780;2024-01-16T12:59:53;7.97;38.72
63976;DHT22;50167;47.958;21.780;2024-01-16T13:02:25;7.67;39.12
63976;DHT22;50167;47.958;21.780;2024-01-16T13:05:00;7.77;39.85
63976;DHT22;50167;47.958;21.780;2024-01-16T13:07:29;7.96;39.82
63976;DHT22;50167;47.958;21.780;2024-01-16T13:10:09;8.14;39.57
63976;DHT22;50167;47.958;21.780;2024-01-16T13:12:37;8.63;38.14
63976;DHT22;50167;47.958;21.780;2024-01-16T13:15:05;9.41;37.51
63976;DHT22;50167;47.958;21.780;2024-01-16T13:17:34;9.82;37.20
63976;DHT22;50167;47.958;21.780;2024-01-16T13:20:01;10.03;35.99
63976;DHT22;50167;47.958;21.780;2024-01-16T13:22:29;10.18;35.25
63976;DHT22;50167;47.958;21.780;2024-01-16T13:24:55;10.76;35.61
63976;DHT22;50167;47.958;21.780;2024-01-16T13:27:23;11.08;35.79
63976;DHT22;50167;47.958;21.780;2024-01-16T13:29:51;11.14;34.76
63976;DHT22;50167;47.958;21.780;2024-01-16T13:32:17;11.79;34.25
63976;DHT22;50167;47.958;21.780;2024-01-16T13:34:43;12.33;31.52
63976;DHT22;50167;47.958;21.780;2024-01-16T13:37:11;12.52;30.80
63976;DHT22;50167;47.958;21.780;2024-01-16T13:39:39;12.27;31.95
63976;DHT22;50167;47.958;21.780;2024-01-16T13:42:06;11.76;32.47
63976;DHT22;50167;47.958;21.780;2024-01-16T13:44:32;11.62;32.80
63976;DHT22;50167;47.958;21.780;2024-01-16T13:46:58;11.96;30.15
63976;DHT22;50167;47.958;21.780;2024-01-16T13:49:25;12.19;32.27
63976;DHT22;50167;47.958;21.780;2024-01-16T13:51:51;12.13;30.29
63976;DHT22;50167;47.958;21.780;2024-01-16T13:54:17;11.86;30.71
63976;DHT22;50167;47.958;21.780;2024-01-16T13:56:43;11.48;31.64
63976;DHT22;50167;47.958;21.780;2024-01-16T13:59:12;11.04;31.75
63976;DHT22;50167;47.958;21.780;2024-01-16T14:01:38;10.53;33.80
63976;DHT22;50167;47.958;21.780;2024-01-16T14:04:04;9.85;33.28
63976;DHT22;50167;47.958;21.780;2024-01-16T14:06:31;9.18;34.14
63976;DHT22;50167;47.958;21.780;2024-01-16T14:08:57;8.66;35.12
63976;DHT22;50167;47.958;21.780;2024-01-16T14:11:23;8.15;35.57
63976;DHT22;50167;47.958;21.780;2024-01-16T14:13:49;7.66;35.72
63976;DHT22;50167;47.958;21.780;2024-01-16T14:16:16;7.32;37.20
63976;DHT22;50167;47.958;21.780;2024-01-16T14:18:42;6.91;37.87
63976;DHT22;50167;47.958;21.780;2024-01-16T14:21:08;6.53;38.65
63976;DHT22;50167;47.958;21.780;2024-01-16T14:23:35;6.18;39.42
63976;DHT22;50167;47.958;21.780;2024-01-16T14:26:01;5.87;40.18
63976;DHT22;50167;47.958;21.780;2024-01-16T14:28:27;5.59;40.64
63976;DHT22;50167;47.958;21.780;2024-01-16T14:30:54;5.35;41.35
63976;DHT22;50167;47.958;21.780;2024-01-16T14:33:20;5.36;42.08
63976;DHT22;50167;47.958;21.780;2024-01-16T14:35:47;5.41;41.63
63976;DHT22;50167;47.958;21.780;2024-01-16T14:38:13;5.31;42.10
63976;DHT22;50167;47.958;21.780;2024-01-16T14:40:39;5.63;41.06
63976;DHT22;50167;47.958;21.780;2024-01-16T14:43:06;5.32;41.61
63976;DHT22;50167;47.958;21.780;2024-01-16T14:45:32;5.60;42.25
63976;DHT22;50167;47.958;21.780;2024-01-16T14:47:59;5.62;41.42
63976;DHT22;50167;47.958;21.780;2024-01-16T14:50:26;5.22;41.43
63976;DHT22;50167;47.958;21.780;2024-01-16T14:52:53;5.71;42.89
63976;DHT22;50167;47.958;21.780;2024-01-16T14:55:19;5.46;41.67
63976;DHT22;50167;47.958;21.780;2024-01-16T14:57:50;5.36;42.65
63976;DHT22;50167;47.958;21.780;2024-01-16T15:00:19;5.65;41.18
63976;DHT22;50167;47.958;21.780;2024-01-16T15:02:55;5.18;41.65
63976;DHT22;50167;47.958;21.780;2024-01-16T15:05:23;5.76;41.79
63976;DHT22;50167;47.958;21.780;2024-01-16T15:07:49;5.36;41.22
63976;DHT22;50167;47.958;21.780;2024-01-16T15:10:18;5.63;44.32
63976;DHT22;50167;47.958;21.780;2024-01-16T15:12:45;5.63;41.33
63976;DHT22;50167;47.958;21.780;2024-01-16T15:15:14;5.15;41.97
63976;DHT22;50167;47.958;21.780;2024-01-16T15:17:42;5.65;41.74
63976;DHT22;50167;47.958;21.780;2024-01-16T15:20:10;5.15;41.71
63976;DHT22;50167;47.958;21.780;2024-01-16T15:22:44;5.59;41.16
63976;DHT22;50167;47.958;21.780;2024-01-16T15:25:12;5.10;41.96
63976;DHT22;50167;47.958;21.780;2024-01-16T15:27:42;5.67;41.68
63976;DHT22;50167;47.958;21.780;2024-01-16T15:30:10;5.21;41.53
63976;DHT22;50167;47.958;21.780;2024-01-16T15:32:37;5.66;42.73